createdAt,value
2022-10-28T00:01:35.933Z,100921.00
2022-10-28T00:04:03.825Z,100920.22
2022-10-28T00:06:35.077Z,100916.78
2022-10-28T00:09:05.646Z,100906.13
2022-10-28T00:11:35.968Z,100900.06
2022-10-28T00:14:05.460Z,100897.34
2022-10-28T00:16:35.667Z,100896.56
2022-10-28T00:19:05.724Z,100900.03
2022-10-28T00:21:37.151Z,100906.13
2022-10-28T00:24:05.783Z,100910.59
2022-10-28T00:26:37.303Z,100900.13
2022-10-28T00:29:14.721Z,100900.03
2022-10-28T00:31:42.955Z,100904.38
2022-10-28T00:34:13.797Z,100900.91
2022-10-28T00:36:44.095Z,100894.88
2022-10-28T00:39:17.442Z,100881.56
2022-10-28T00:41:54.177Z,100881.50
2022-10-28T00:44:40.300Z,100881.63
2022-10-28T00:47:45.451Z,100876.25
2022-10-28T00:50:19.380Z,100878.00
2022-10-28T00:52:51.773Z,100896.50
2022-10-28T00:55:21.546Z,100897.38
2022-10-28T00:57:50.037Z,100900.91
2022-10-28T01:00:17.888Z,100894.88
2022-10-28T01:02:48.403Z,100889.66
2022-10-28T01:05:31.468Z,100892.22
2022-10-28T01:08:02.013Z,100887.97
2022-10-28T01:11:02.786Z,100882.72
2022-10-28T01:13:55.454Z,100887.25
2022-10-28T01:16:40.368Z,100881.97
2022-10-28T01:19:45.882Z,100878.28
2022-10-28T01:22:25.649Z,100879.19
2022-10-28T01:25:14.469Z,100869.44
2022-10-28T01:28:04.083Z,100869.56
2022-10-28T01:31:10.747Z,100862.41
2022-10-28T01:33:53.089Z,100856.34
2022-10-28T01:36:56.367Z,100854.56
2022-10-28T01:39:39.012Z,100846.56
2022-10-28T01:42:37.251Z,100849.44
2022-10-28T01:45:25.318Z,100845.16
2022-10-28T01:48:02.359Z,100847.81
2022-10-28T01:50:30.422Z,100847.81
2022-10-28T01:53:04.371Z,100841.66
2022-10-28T01:55:41.589Z,100837.44
2022-10-28T01:58:12.457Z,100841.91
2022-10-28T02:00:40.888Z,100825.91
2022-10-28T02:03:12.507Z,100828.72
2022-10-28T02:06:04.194Z,100839.22
2022-10-28T02:08:44.349Z,100821.53
2022-10-28T02:11:23.819Z,100820.81
2022-10-28T02:14:18.146Z,100815.56
2022-10-28T02:17:32.322Z,100815.47
2022-10-28T02:20:16.454Z,100818.09
2022-10-28T02:23:23.303Z,100816.28
2022-10-28T02:26:01.123Z,100822.47
2022-10-28T02:28:59.118Z,100807.59
2022-10-28T02:31:36.295Z,100812.00
2022-10-28T02:34:16.326Z,100815.47
2022-10-28T02:36:49.237Z,100813.84
2022-10-28T02:39:26.763Z,100813.81
2022-10-28T02:42:01.021Z,100810.28
2022-10-28T02:44:34.103Z,100821.69
2022-10-28T02:47:09.685Z,100812.97
2022-10-28T02:49:43.158Z,100821.75
2022-10-28T02:52:12.368Z,100826.19
2022-10-28T02:54:45.948Z,100834.19
2022-10-28T02:57:25.998Z,100844.66
2022-10-28T03:00:09.712Z,100850.66
2022-10-28T03:02:37.583Z,100854.16
2022-10-28T03:05:06.982Z,100861.25
2022-10-28T03:07:34.821Z,100871.88
2022-10-28T03:10:03.818Z,100874.56
2022-10-28T03:12:31.906Z,100883.28
2022-10-28T03:14:59.348Z,100870.09
2022-10-28T03:17:26.786Z,100856.13
2022-10-28T03:19:54.114Z,100872.81
2022-10-28T03:22:22.074Z,100885.09
2022-10-28T03:24:49.582Z,100881.59
2022-10-28T03:27:17.079Z,100888.56
2022-10-28T03:29:45.964Z,100886.81
2022-10-28T03:32:15.136Z,100892.03
2022-10-28T03:34:42.655Z,100885.88
2022-10-28T03:37:11.387Z,100891.16
2022-10-28T03:39:38.993Z,100901.66
2022-10-28T03:42:06.495Z,100896.38
2022-10-28T03:44:33.808Z,100892.84
2022-10-28T03:47:01.974Z,100889.34
2022-10-28T03:49:29.731Z,100884.94
2022-10-28T03:51:58.024Z,100880.50
2022-10-28T03:54:25.525Z,100885.78
2022-10-28T03:56:53.367Z,100890.19
2022-10-28T03:59:20.777Z,100871.72
2022-10-28T04:01:49.443Z,100868.94
2022-10-28T04:04:16.978Z,100885.69
2022-10-28T04:06:44.397Z,100900.56
2022-10-28T04:09:12.514Z,100884.81
2022-10-28T04:11:39.910Z,100886.41
2022-10-28T04:14:07.246Z,100911.84
2022-10-28T04:16:36.128Z,100892.56
2022-10-28T04:19:06.167Z,100892.59
2022-10-28T04:21:35.582Z,100889.97
2022-10-28T04:24:03.035Z,100896.16
2022-10-28T04:26:32.010Z,100886.44
2022-10-28T04:28:59.504Z,100895.19
2022-10-28T04:31:28.728Z,100906.63
2022-10-28T04:33:56.202Z,100918.00
2022-10-28T04:36:24.540Z,100917.91
2022-10-28T04:38:52.128Z,100913.50
2022-10-28T04:41:20.270Z,100932.00
2022-10-28T04:43:47.634Z,100952.25
2022-10-28T04:46:15.472Z,100960.19
2022-10-28T04:48:44.443Z,100958.50
2022-10-28T04:51:12.452Z,100959.44
2022-10-28T04:53:39.823Z,100951.50
2022-10-28T04:56:07.648Z,100965.44
2022-10-28T04:58:35.048Z,100963.75
2022-10-28T05:01:08.337Z,100964.78
2022-10-28T05:03:36.827Z,100970.13
2022-10-28T05:06:04.372Z,100975.38
2022-10-28T05:08:35.602Z,100973.59
2022-10-28T05:11:02.989Z,100970.16
2022-10-28T05:13:32.945Z,100965.66
2022-10-28T05:16:03.087Z,100962.91
2022-10-28T05:18:30.830Z,100950.41
2022-10-28T05:20:58.220Z,100950.44
2022-10-28T05:23:28.533Z,100943.63
2022-10-28T05:25:58.550Z,100950.75
2022-10-28T05:28:29.064Z,100962.22
2022-10-28T05:30:56.477Z,100967.47
2022-10-28T05:33:23.847Z,100989.44
2022-10-28T05:35:51.717Z,100981.69
2022-10-28T05:38:20.195Z,100990.47
2022-10-28T05:40:48.570Z,100981.72
2022-10-28T05:43:16.007Z,100992.22
2022-10-28T05:45:43.474Z,100995.72
2022-10-28T05:48:10.835Z,101004.44
2022-10-28T05:50:39.506Z,101015.88
2022-10-28T05:53:07.255Z,101010.47
2022-10-28T05:55:35.410Z,101012.19
2022-10-28T05:58:04.042Z,101019.13
2022-10-28T06:00:32.386Z,101016.53
2022-10-28T06:03:07.666Z,101016.41
2022-10-28T06:05:42.901Z,101016.44
2022-10-28T06:08:12.664Z,101024.38
2022-10-28T06:10:41.142Z,101025.19
2022-10-28T06:13:08.179Z,101016.38
2022-10-28T06:15:35.557Z,101013.72
2022-10-28T06:18:04.826Z,101001.34
2022-10-28T06:20:32.341Z,101011.75
2022-10-28T06:23:01.316Z,101019.56
2022-10-28T06:25:28.696Z,101030.09
2022-10-28T06:27:57.802Z,101030.97
2022-10-28T06:30:27.458Z,101034.44
2022-10-28T06:32:56.374Z,101041.47
2022-10-28T06:35:23.983Z,101041.44
2022-10-28T06:37:55.791Z,101043.09
2022-10-28T06:40:28.928Z,101048.22
2022-10-28T06:42:59.558Z,101049.03
2022-10-28T06:45:28.550Z,101052.53
2022-10-28T06:48:05.804Z,101047.25
2022-10-28T06:50:35.855Z,101051.66
2022-10-28T06:53:04.584Z,101059.59
2022-10-28T06:55:32.797Z,101063.00
2022-10-28T06:58:02.799Z,101077.13
2022-10-28T07:03:04.990Z,101097.22
2022-10-28T07:05:32.439Z,101086.59
2022-10-28T07:07:59.872Z,101090.09
2022-10-28T07:10:28.109Z,101103.34
2022-10-28T07:12:56.456Z,101112.97
2022-10-28T07:15:24.361Z,101117.38
2022-10-28T07:17:57.433Z,101138.41
2022-10-28T07:20:27.150Z,101143.59
2022-10-28T07:22:59.476Z,101152.38
2022-10-28T07:25:30.024Z,101160.19
2022-10-28T07:27:58.872Z,101167.19
2022-10-28T07:30:29.056Z,101159.19
2022-10-28T07:32:58.645Z,101156.47
2022-10-28T07:35:26.233Z,101151.94
2022-10-28T07:37:56.039Z,101156.16
2022-10-28T07:40:24.925Z,101153.44
2022-10-28T07:42:52.718Z,101161.13
2022-10-28T07:45:21.452Z,101159.38
2022-10-28T07:47:50.272Z,101173.38
2022-10-28T07:50:18.501Z,101176.94
2022-10-28T07:52:47.016Z,101177.84
2022-10-28T07:55:14.479Z,101183.09
2022-10-28T07:57:41.848Z,101185.75
2022-10-28T08:00:11.426Z,101182.38
2022-10-28T08:02:39.714Z,101191.97
2022-10-28T08:05:08.926Z,101186.72
2022-10-28T08:07:38.719Z,101202.44
2022-10-28T08:10:08.054Z,101210.28
2022-10-28T08:12:35.465Z,101204.94
2022-10-28T08:15:03.048Z,101195.06
2022-10-28T08:17:30.661Z,101195.78
2022-10-28T08:19:58.117Z,101208.88
2022-10-28T08:22:26.450Z,101213.31
2022-10-28T08:24:53.886Z,101217.81
2022-10-28T08:27:21.234Z,101222.38
2022-10-28T08:29:48.866Z,101232.09
2022-10-28T08:32:16.615Z,101237.41
2022-10-28T08:34:44.699Z,101248.84
2022-10-28T08:37:12.629Z,101252.34
2022-10-28T08:39:40.869Z,101275.25
2022-10-28T08:42:35.904Z,101292.84
2022-10-28T08:45:26.841Z,101297.97
2022-10-28T08:48:19.578Z,101303.16
2022-10-28T08:50:54.882Z,101317.19
2022-10-28T08:53:29.377Z,101319.69
2022-10-28T08:56:28.943Z,101327.47
2022-10-28T08:59:00.934Z,101310.00
2022-10-28T09:01:42.019Z,101322.41
2022-10-28T09:04:47.178Z,101328.16
2022-10-28T09:07:23.074Z,101317.06
2022-10-28T09:09:53.255Z,101318.31
2022-10-28T09:13:00.231Z,101325.56
2022-10-28T09:15:33.743Z,101339.22
2022-10-28T09:18:44.599Z,101349.69
2022-10-28T09:21:31.928Z,101347.88
2022-10-28T09:24:06.406Z,101345.31
2022-10-28T09:26:35.075Z,101354.84
2022-10-28T09:29:19.152Z,101355.38
2022-10-28T09:32:08.370Z,101360.13
2022-10-28T09:35:06.382Z,101358.81
2022-10-28T09:37:45.896Z,101370.22
2022-10-28T09:40:25.377Z,101373.75
2022-10-28T09:43:20.994Z,101385.25
2022-10-28T09:45:51.021Z,101390.22
2022-10-28T09:48:29.929Z,101394.31
2022-10-28T09:50:59.151Z,101394.31
2022-10-28T09:53:45.336Z,101405.09
2022-10-28T09:56:12.860Z,101411.09
2022-10-28T09:58:48.710Z,101416.94
2022-10-28T10:01:18.957Z,101422.22
2022-10-28T10:03:51.919Z,101421.00
2022-10-28T10:06:36.572Z,101433.03
2022-10-28T10:09:04.983Z,101426.03
2022-10-28T10:11:42.939Z,101425.97
2022-10-28T10:14:17.487Z,101422.34
2022-10-28T10:17:17.374Z,101423.91
2022-10-28T10:20:05.308Z,101423.88
2022-10-28T10:22:37.794Z,101432.69
2022-10-28T10:25:21.038Z,101437.66
2022-10-28T10:28:00.168Z,101452.38
2022-10-28T10:30:36.452Z,101459.13
2022-10-28T10:33:08.599Z,101463.03
2022-10-28T10:35:38.156Z,101449.16
2022-10-28T10:38:07.876Z,101458.56
2022-10-28T10:40:47.558Z,101460.78
2022-10-28T10:43:18.666Z,101468.13
2022-10-28T10:46:01.325Z,101465.59
2022-10-28T10:48:36.359Z,101473.53
2022-10-28T10:51:23.003Z,101471.03
2022-10-28T10:53:54.715Z,101469.19
2022-10-28T10:56:28.041Z,101476.97
2022-10-28T10:59:05.804Z,101472.16
2022-10-28T11:01:38.281Z,101475.75
2022-10-28T11:04:09.042Z,101477.69
2022-10-28T11:06:44.014Z,101470.78
2022-10-28T11:09:30.497Z,101474.44
2022-10-28T11:11:58.222Z,101479.63
2022-10-28T11:14:32.376Z,101480.03
2022-10-28T11:17:02.992Z,101476.97
2022-10-28T11:19:35.276Z,101475.09
2022-10-28T11:23:05.493Z,101467.06
2022-10-28T11:25:35.650Z,101454.09
2022-10-28T11:28:35.007Z,101460.59
2022-10-28T11:31:29.601Z,101456.13
2022-10-28T11:34:05.886Z,101449.03
2022-10-28T11:36:49.648Z,101436.66
2022-10-28T11:39:37.689Z,101445.06
2022-10-28T11:42:31.757Z,101438.38
2022-10-28T11:45:10.142Z,101446.78
2022-10-28T11:47:56.918Z,101448.56
2022-10-28T11:50:40.241Z,101460.28
2022-10-28T11:53:22.481Z,101458.81
2022-10-28T11:56:12.419Z,101456.38
2022-10-28T11:58:50.317Z,101448.53
2022-10-28T12:01:28.529Z,101443.09
2022-10-28T12:04:14.715Z,101439.38
2022-10-28T12:07:04.481Z,101438.16
2022-10-28T12:10:03.150Z,101443.56
2022-10-28T12:12:51.264Z,101447.22
2022-10-28T12:15:40.034Z,101447.03
2022-10-28T12:18:18.902Z,101435.16
2022-10-28T12:21:03.359Z,101438.47
2022-10-28T12:23:34.974Z,101441.31
2022-10-28T12:26:07.754Z,101428.88
2022-10-28T12:28:47.822Z,101432.38
2022-10-28T12:31:30.641Z,101444.06
2022-10-28T12:34:05.645Z,101440.66
2022-10-28T12:36:38.779Z,101432.88
2022-10-28T12:39:19.054Z,101431.47
2022-10-28T12:42:04.167Z,101437.88
2022-10-28T12:44:34.741Z,101430.06
2022-10-28T12:47:14.880Z,101433.50
2022-10-28T12:49:55.140Z,101446.84
2022-10-28T12:52:41.796Z,101431.09
2022-10-28T12:55:27.355Z,101435.75
2022-10-28T12:58:02.726Z,101442.13
2022-10-28T13:00:35.286Z,101443.97
2022-10-28T13:03:11.919Z,101444.97
2022-10-28T13:06:00.013Z,101439.66
2022-10-28T13:08:59.792Z,101440.75
2022-10-28T13:11:43.486Z,101438.97
2022-10-28T13:14:23.768Z,101433.66
2022-10-28T13:17:06.253Z,101428.44
2022-10-28T13:19:44.076Z,101436.63
2022-10-28T13:22:30.637Z,101438.66
2022-10-28T13:25:23.181Z,101435.50
2022-10-28T13:27:57.436Z,101429.16
2022-10-28T13:30:27.408Z,101436.31
2022-10-28T13:33:10.355Z,101437.22
2022-10-28T13:35:42.176Z,101437.16
2022-10-28T13:38:13.611Z,101441.50
2022-10-28T13:40:40.978Z,101442.53
2022-10-28T13:43:42.829Z,101420.47
2022-10-28T13:46:11.877Z,101406.38
2022-10-28T13:48:48.276Z,101415.16
2022-10-28T13:51:16.222Z,101420.47
2022-10-28T13:53:53.082Z,101417.81
2022-10-28T13:56:47.311Z,101422.13
2022-10-28T13:59:16.131Z,101425.47
2022-10-28T14:02:07.539Z,101435.84
2022-10-28T14:04:39.116Z,101434.97
2022-10-28T14:07:22.073Z,101439.41
2022-10-28T14:09:53.201Z,101448.34
2022-10-28T14:12:33.802Z,101437.88
2022-10-28T14:15:18.010Z,101434.44
2022-10-28T14:18:00.951Z,101438.13
2022-10-28T14:20:43.383Z,101420.41
2022-10-28T14:23:24.289Z,101427.53
2022-10-28T14:25:51.888Z,101424.88
2022-10-28T14:28:29.859Z,101424.03
2022-10-28T14:31:15.648Z,101434.56
2022-10-28T14:33:43.590Z,101428.44
2022-10-28T14:36:20.210Z,101428.38
2022-10-28T14:39:39.505Z,101432.69
2022-10-28T14:42:33.082Z,101437.34
2022-10-28T14:45:06.191Z,101422.47
2022-10-28T14:48:03.239Z,101433.16
2022-10-28T14:50:44.087Z,101421.66
2022-10-28T14:53:30.994Z,101427.94
2022-10-28T14:56:04.529Z,101428.03
2022-10-28T14:58:37.834Z,101445.00
2022-10-28T15:01:25.407Z,101438.88
2022-10-28T15:04:02.258Z,101438.00
2022-10-28T15:06:37.884Z,101428.44
2022-10-28T15:09:16.551Z,101432.94
2022-10-28T15:11:56.570Z,101436.50
2022-10-28T15:14:39.161Z,101432.97
2022-10-28T15:17:28.395Z,101430.38
2022-10-28T15:19:58.567Z,101437.59
2022-10-28T15:22:32.270Z,101447.38
2022-10-28T15:25:04.509Z,101451.06
2022-10-28T15:27:35.853Z,101438.94
2022-10-28T15:30:07.104Z,101443.38
2022-10-28T15:32:35.872Z,101435.31
2022-10-28T15:35:36.413Z,101438.16
2022-10-28T15:38:38.522Z,101438.28
2022-10-28T15:41:21.771Z,101435.78
2022-10-28T15:44:03.349Z,101442.13
2022-10-28T15:46:33.310Z,101438.50
2022-10-28T15:49:01.978Z,101444.66
2022-10-28T15:51:30.343Z,101434.00
2022-10-28T15:54:19.257Z,101433.97
2022-10-28T15:56:57.784Z,101429.72
2022-10-28T15:59:27.104Z,101432.38
2022-10-28T16:01:57.662Z,101430.84
2022-10-28T16:04:43.128Z,101437.19
2022-10-28T16:07:11.182Z,101442.50
2022-10-28T16:09:46.508Z,101443.50
2022-10-28T16:12:21.313Z,101433.84
2022-10-28T16:14:57.526Z,101442.69
2022-10-28T16:17:27.511Z,101431.31
2022-10-28T16:20:00.223Z,101434.78
2022-10-28T16:22:31.365Z,101435.63
2022-10-28T16:24:59.984Z,101433.16
2022-10-28T16:27:32.032Z,101431.47
2022-10-28T16:30:00.097Z,101433.28
2022-10-28T16:32:38.818Z,101435.13
2022-10-28T16:35:15.294Z,101419.25
2022-10-28T16:37:47.322Z,101431.63
2022-10-28T16:40:45.605Z,101427.28
2022-10-28T16:43:06.364Z,101421.13
2022-10-28T16:45:34.596Z,101407.88
2022-10-28T16:48:02.523Z,101415.00
2022-10-28T16:50:29.929Z,101420.31
2022-10-28T16:52:57.883Z,101422.16
2022-10-28T16:55:26.278Z,101415.13
2022-10-28T16:57:54.719Z,101409.97
2022-10-28T17:00:25.590Z,101412.53
2022-10-28T17:02:54.157Z,101417.97
2022-10-28T17:05:24.037Z,101425.19
2022-10-28T17:07:51.651Z,101417.28
2022-10-28T17:10:19.135Z,101426.03
2022-10-28T17:12:46.998Z,101428.75
2022-10-28T17:15:15.533Z,101433.16
2022-10-28T17:17:45.067Z,101422.63
2022-10-28T17:20:13.165Z,101428.78
2022-10-28T17:22:41.014Z,101430.50
2022-10-28T17:25:08.901Z,101425.22
2022-10-28T17:27:37.840Z,101420.69
2022-10-28T17:30:06.859Z,101433.84
2022-10-28T17:32:34.440Z,101421.63
2022-10-28T17:35:01.858Z,101425.09
2022-10-28T17:37:29.642Z,101422.47
2022-10-28T17:39:57.266Z,101429.56
2022-10-28T17:42:26.331Z,101433.13
2022-10-28T17:44:53.811Z,101426.06
2022-10-28T17:47:25.506Z,101425.22
2022-10-28T17:49:53.674Z,101423.41
2022-10-28T17:52:21.124Z,101433.94
2022-10-28T17:54:48.538Z,101434.00
2022-10-28T17:57:17.098Z,101422.59
2022-10-28T17:59:46.063Z,101430.56
2022-10-28T18:02:15.053Z,101433.22
2022-10-28T18:04:43.014Z,101425.16
2022-10-28T18:07:10.398Z,101432.34
2022-10-28T18:09:42.123Z,101436.72
2022-10-28T18:12:13.030Z,101424.34
2022-10-28T18:14:40.444Z,101424.31
2022-10-28T18:17:07.937Z,101425.34
2022-10-28T18:19:37.025Z,101412.16
2022-10-28T18:22:04.931Z,101418.38
2022-10-28T18:24:32.430Z,101417.53
2022-10-28T18:27:00.025Z,101420.22
2022-10-28T18:29:27.421Z,101415.00
2022-10-28T18:31:55.219Z,101419.34
2022-10-28T18:34:24.281Z,101422.84
2022-10-28T18:36:52.713Z,101421.97
2022-10-28T18:39:20.183Z,101415.75
2022-10-28T18:41:48.361Z,101420.19
2022-10-28T18:44:20.041Z,101418.47
2022-10-28T18:46:47.515Z,101417.59
2022-10-28T18:49:15.357Z,101417.53
2022-10-28T18:51:43.809Z,101414.88
2022-10-28T18:54:11.210Z,101411.38
2022-10-28T18:56:38.931Z,101409.66
2022-10-28T18:59:06.581Z,101405.22
2022-10-28T19:01:34.611Z,101407.97
2022-10-28T19:04:06.119Z,101400.91
2022-10-28T19:06:34.517Z,101393.03
2022-10-28T19:09:04.264Z,101397.53
2022-10-28T19:11:32.828Z,101397.47
2022-10-28T19:14:02.100Z,101388.75
2022-10-28T19:16:33.746Z,101387.88
2022-10-28T19:19:03.604Z,101383.47
2022-10-28T19:21:31.211Z,101384.41
2022-10-28T19:23:59.529Z,101388.75
2022-10-28T19:26:27.922Z,101387.94
2022-10-28T19:28:55.457Z,101386.28
2022-10-28T19:31:25.169Z,101381.88
2022-10-28T19:33:54.503Z,101376.53
2022-10-28T19:36:26.941Z,101362.34
2022-10-28T19:38:56.551Z,101354.41
2022-10-28T19:41:29.150Z,101350.00
2022-10-28T19:43:59.447Z,101342.06
2022-10-28T19:46:29.185Z,101343.84
2022-10-28T19:48:59.700Z,101349.16
2022-10-28T19:51:31.258Z,101353.53
2022-10-28T19:54:02.289Z,101357.06
2022-10-28T19:56:33.523Z,101359.72
2022-10-28T19:59:02.775Z,101358.88
2022-10-28T20:01:34.520Z,101376.50
2022-10-28T20:04:05.862Z,101371.22
2022-10-28T20:06:36.953Z,101360.75
2022-10-28T20:09:05.677Z,101359.91
2022-10-28T20:11:35.705Z,101359.84
2022-10-28T20:14:06.383Z,101355.47
2022-10-28T20:16:35.435Z,101361.66
2022-10-28T20:19:03.734Z,101355.44
2022-10-28T20:21:35.485Z,101359.84
2022-10-28T20:24:05.358Z,101349.28
2022-10-28T20:26:34.654Z,101346.59
2022-10-28T20:29:03.308Z,101344.91
2022-10-28T20:31:33.942Z,101346.72
2022-10-28T20:34:05.814Z,101351.84
2022-10-28T20:36:39.646Z,101343.03
2022-10-28T20:39:18.655Z,101344.84
2022-10-28T20:41:47.704Z,101343.84
2022-10-28T20:44:16.053Z,101333.38
2022-10-28T20:46:48.151Z,101336.81
2022-10-28T20:49:16.083Z,101336.78
2022-10-28T20:51:43.602Z,101336.78
2022-10-28T20:54:44.132Z,101341.19
2022-10-28T20:57:11.609Z,101333.28
2022-10-28T20:59:39.841Z,101329.75
2022-10-28T21:02:10.306Z,101329.75
2022-10-28T21:04:37.807Z,101331.66
2022-10-28T21:07:05.283Z,101334.25
2022-10-28T21:09:34.522Z,101332.53
2022-10-28T21:12:04.358Z,101336.13
2022-10-28T21:14:31.797Z,101332.63
2022-10-28T21:17:01.734Z,101331.69
2022-10-28T21:19:29.294Z,101329.00
2022-10-28T21:21:56.815Z,101314.94
2022-10-28T21:24:24.699Z,101314.13
2022-10-28T21:26:52.266Z,101315.91
2022-10-28T21:29:19.690Z,101311.44
2022-10-28T21:31:47.646Z,101299.16
2022-10-28T21:34:15.591Z,101300.94
2022-10-28T21:36:46.266Z,101305.25
2022-10-28T21:39:14.526Z,101305.22
2022-10-28T21:41:41.926Z,101320.97
2022-10-28T21:44:10.137Z,101310.38
2022-10-28T21:46:38.369Z,101299.88
2022-10-28T21:49:07.104Z,101311.44
2022-10-28T21:51:37.978Z,101301.84
2022-10-28T21:54:05.476Z,101295.81
2022-10-28T21:56:32.927Z,101291.28
2022-10-28T21:59:01.198Z,101280.66
2022-10-28T22:01:29.903Z,101275.25
2022-10-28T22:03:57.813Z,101272.56
2022-10-28T22:06:25.414Z,101271.69
2022-10-28T22:08:54.305Z,101269.97
2022-10-28T22:11:23.423Z,101270.91
2022-10-28T22:14:02.768Z,101265.69
2022-10-28T22:16:32.169Z,101262.19
2022-10-28T22:19:06.727Z,101241.94
2022-10-28T22:21:40.590Z,101249.91
2022-10-28T22:24:10.137Z,101237.63
2022-10-28T22:26:39.349Z,101241.97
2022-10-28T22:29:11.080Z,101241.06
2022-10-28T22:31:38.425Z,101244.56
2022-10-28T22:34:05.978Z,101251.59
2022-10-28T22:36:33.731Z,101245.50
2022-10-28T22:39:03.762Z,101241.97
2022-10-28T22:41:32.171Z,101239.25
2022-10-28T22:44:02.232Z,101235.78
2022-10-28T22:46:31.861Z,101227.84
2022-10-28T22:48:59.782Z,101226.13
2022-10-28T22:51:30.530Z,101216.38
2022-10-28T22:53:58.714Z,101204.84
2022-10-28T22:56:26.928Z,101204.00
2022-10-28T22:58:58.376Z,101193.41
2022-10-28T23:01:27.536Z,101193.38
2022-10-28T23:03:55.601Z,101197.75
2022-10-28T23:06:26.499Z,101195.97
2022-10-28T23:08:54.803Z,101185.44
2022-10-28T23:11:23.222Z,101179.28
2022-10-28T23:13:55.140Z,101185.41
2022-10-28T23:16:24.324Z,101176.59
2022-10-28T23:18:53.280Z,101181.84
2022-10-28T23:21:25.535Z,101173.88
2022-10-28T23:23:59.520Z,101161.59
2022-10-28T23:26:29.918Z,101166.78
2022-10-28T23:28:59.874Z,101165.97
2022-10-28T23:31:28.451Z,101154.38
2022-10-28T23:33:56.760Z,101147.31
2022-10-28T23:36:24.600Z,101138.50
2022-10-28T23:38:53.986Z,101137.59
2022-10-28T23:41:21.774Z,101130.53
2022-10-28T23:43:49.556Z,101123.50
2022-10-28T23:46:18.168Z,101118.22
2022-10-28T23:48:46.354Z,101107.53
2022-10-28T23:51:15.810Z,101098.84
2022-10-28T23:53:44.012Z,101099.69
2022-10-28T23:56:11.533Z,101096.13
2022-10-28T23:58:38.857Z,101086.44
